sensor_id;sensor_type;location;lat;lon;timestamp;temperature;humidity
15947;DHT22;8072;52.554;7.966;2023-04-23T00:01:05;11.70;99.90
15947;DHT22;8072;52.554;7.966;2023-04-23T00:03:36;11.70;99.90
15947;DHT22;8072;52.554;7.966;2023-04-23T00:06:05;11.60;99.90
15947;DHT22;8072;52.554;7.966;2023-04-23T00:08:33;11.60;99.90
15947;DHT22;8072;52.554;7.966;2023-04-23T00:11:01;11.60;99.90
15947;DHT22;8072;52.554;7.966;2023-04-23T00:13:27;11.50;99.90
15947;DHT22;8072;52.554;7.966;2023-04-23T00:15:53;11.50;99.90
15947;DHT22;8072;52.554;7.966;2023-04-23T00:18:19;11.50;99.90
15947;DHT22;8072;52.554;7.966;2023-04-23T00:20:45;11.40;99.90
15947;DHT22;8072;52.554;7.966;2023-04-23T00:23:11;11.40;99.90
15947;DHT22;8072;52.554;7.966;2023-04-23T00:25:36;11.40;99.90
15947;DHT22;8072;52.554;7.966;2023-04-23T00:28:03;11.30;99.90
15947;DHT22;8072;52.554;7.966;2023-04-23T00:30:28;11.40;99.90
15947;DHT22;8072;52.554;7.966;2023-04-23T00:32:54;11.30;99.90
15947;DHT22;8072;52.554;7.966;2023-04-23T00:35:20;11.30;99.90
15947;DHT22;8072;52.554;7.966;2023-04-23T00:37:47;11.30;99.90
15947;DHT22;8072;52.554;7.966;2023-04-23T00:40:13;11.20;99.90
15947;DHT22;8072;52.554;7.966;2023-04-23T00:42:40;11.10;99.90
15947;DHT22;8072;52.554;7.966;2023-04-23T00:45:07;11.10;99.90
15947;DHT22;8072;52.554;7.966;2023-04-23T00:47:33;11.10;99.90
15947;DHT22;8072;52.554;7.966;2023-04-23T00:49:59;11.10;99.90
15947;DHT22;8072;52.554;7.966;2023-04-23T00:52:25;11.00;99.90
15947;DHT22;8072;52.554;7.966;2023-04-23T00:54:55;11.00;99.90
15947;DHT22;8072;52.554;7.966;2023-04-23T00:57:22;11.00;99.90
15947;DHT22;8072;52.554;7.966;2023-04-23T00:59:48;11.00;99.90
15947;DHT22;8072;52.554;7.966;2023-04-23T01:02:14;11.00;99.90
15947;DHT22;8072;52.554;7.966;2023-04-23T01:04:41;10.90;99.90
15947;DHT22;8072;52.554;7.966;2023-04-23T01:07:10;10.90;99.90
15947;DHT22;8072;52.554;7.966;2023-04-23T01:09:36;10.90;99.90
15947;DHT22;8072;52.554;7.966;2023-04-23T01:12:04;10.90;99.90
15947;DHT22;8072;52.554;7.966;2023-04-23T01:14:31;10.90;99.90
15947;DHT22;8072;52.554;7.966;2023-04-23T01:16:57;10.90;99.90
15947;DHT22;8072;52.554;7.966;2023-04-23T01:19:23;10.80;99.90
15947;DHT22;8072;52.554;7.966;2023-04-23T01:21:49;10.80;99.90
15947;DHT22;8072;52.554;7.966;2023-04-23T01:24:15;10.80;99.90
15947;DHT22;8072;52.554;7.966;2023-04-23T01:26:41;10.80;99.90
15947;DHT22;8072;52.554;7.966;2023-04-23T01:29:08;10.70;99.90
15947;DHT22;8072;52.554;7.966;2023-04-23T01:31:34;10.70;99.90
15947;DHT22;8072;52.554;7.966;2023-04-23T01:34:01;10.70;99.90
15947;DHT22;8072;52.554;7.966;2023-04-23T01:36:27;10.70;99.90
15947;DHT22;8072;52.554;7.966;2023-04-23T01:38:53;10.70;99.90
15947;DHT22;8072;52.554;7.966;2023-04-23T01:41:19;10.70;99.90
15947;DHT22;8072;52.554;7.966;2023-04-23T01:43:45;10.70;99.90
15947;DHT22;8072;52.554;7.966;2023-04-23T01:46:11;10.70;99.90
15947;DHT22;8072;52.554;7.966;2023-04-23T01:48:37;10.70;99.90
15947;DHT22;8072;52.554;7.966;2023-04-23T01:51:03;10.60;99.90
15947;DHT22;8072;52.554;7.966;2023-04-23T01:53:29;10.60;99.90
15947;DHT22;8072;52.554;7.966;2023-04-23T01:55:55;10.50;99.90
15947;DHT22;8072;52.554;7.966;2023-04-23T01:58:22;10.50;99.90
15947;DHT22;8072;52.554;7.966;2023-04-23T02:00:49;10.50;99.90
15947;DHT22;8072;52.554;7.966;2023-04-23T02:03:15;10.50;99.90
15947;DHT22;8072;52.554;7.966;2023-04-23T02:05:41;10.40;99.90
15947;DHT22;8072;52.554;7.966;2023-04-23T02:08:09;10.40;99.90
15947;DHT22;8072;52.554;7.966;2023-04-23T02:10:35;10.30;99.90
15947;DHT22;8072;52.554;7.966;2023-04-23T02:13:02;10.30;99.90
15947;DHT22;8072;52.554;7.966;2023-04-23T02:15:28;10.20;99.90
15947;DHT22;8072;52.554;7.966;2023-04-23T02:17:54;10.20;99.90
15947;DHT22;8072;52.554;7.966;2023-04-23T02:20:21;10.20;99.90
15947;DHT22;8072;52.554;7.966;2023-04-23T02:22:47;10.10;99.90
15947;DHT22;8072;52.554;7.966;2023-04-23T02:25:14;10.10;99.90
15947;DHT22;8072;52.554;7.966;2023-04-23T02:27:41;10.10;99.90
15947;DHT22;8072;52.554;7.966;2023-04-23T02:30:07;10.10;99.90
15947;DHT22;8072;52.554;7.966;2023-04-23T02:32:34;10.10;99.90
15947;DHT22;8072;52.554;7.966;2023-04-23T02:35:01;10.00;99.90
15947;DHT22;8072;52.554;7.966;2023-04-23T02:37:27;10.00;99.90
15947;DHT22;8072;52.554;7.966;2023-04-23T02:39:53;10.00;99.90
15947;DHT22;8072;52.554;7.966;2023-04-23T02:42:19;10.00;99.90
15947;DHT22;8072;52.554;7.966;2023-04-23T02:44:45;9.90;99.90
15947;DHT22;8072;52.554;7.966;2023-04-23T02:47:10;9.90;99.90
15947;DHT22;8072;52.554;7.966;2023-04-23T02:49:36;9.90;99.90
15947;DHT22;8072;52.554;7.966;2023-04-23T02:52:02;9.90;99.90
15947;DHT22;8072;52.554;7.966;2023-04-23T02:54:28;9.90;99.90
15947;DHT22;8072;52.554;7.966;2023-04-23T02:56:54;9.90;99.90
15947;DHT22;8072;52.554;7.966;2023-04-23T02:59:19;9.90;99.90
15947;DHT22;8072;52.554;7.966;2023-04-23T03:01:45;9.90;99.90
15947;DHT22;8072;52.554;7.966;2023-04-23T03:04:11;9.90;99.90
15947;DHT22;8072;52.554;7.966;2023-04-23T03:06:37;9.90;99.90
15947;DHT22;8072;52.554;7.966;2023-04-23T03:09:03;9.80;99.90
15947;DHT22;8072;52.554;7.966;2023-04-23T03:11:29;9.80;99.90
15947;DHT22;8072;52.554;7.966;2023-04-23T03:13:55;9.80;99.90
15947;DHT22;8072;52.554;7.966;2023-04-23T03:16:21;9.80;99.90
15947;DHT22;8072;52.554;7.966;2023-04-23T03:18:47;9.70;99.90
15947;DHT22;8072;52.554;7.966;2023-04-23T03:21:14;9.70;99.90
15947;DHT22;8072;52.554;7.966;2023-04-23T03:23:40;9.70;99.90
15947;DHT22;8072;52.554;7.966;2023-04-23T03:26:06;9.70;99.90
15947;DHT22;8072;52.554;7.966;2023-04-23T03:28:32;9.70;99.90
15947;DHT22;8072;52.554;7.966;2023-04-23T03:30:57;9.60;99.90
15947;DHT22;8072;52.554;7.966;2023-04-23T03:33:23;9.70;99.90
15947;DHT22;8072;52.554;7.966;2023-04-23T03:35:49;9.60;99.90
15947;DHT22;8072;52.554;7.966;2023-04-23T03:38:15;9.60;99.90
15947;DHT22;8072;52.554;7.966;2023-04-23T03:40:41;9.60;99.90
15947;DHT22;8072;52.554;7.966;2023-04-23T03:43:07;9.60;99.90
15947;DHT22;8072;52.554;7.966;2023-04-23T03:45:32;9.50;99.90
15947;DHT22;8072;52.554;7.966;2023-04-23T03:47:58;9.50;99.90
15947;DHT22;8072;52.554;7.966;2023-04-23T03:50:24;9.50;99.90
15947;DHT22;8072;52.554;7.966;2023-04-23T03:52:49;9.50;99.90
15947;DHT22;8072;52.554;7.966;2023-04-23T03:55:15;9.50;99.90
15947;DHT22;8072;52.554;7.966;2023-04-23T03:57:41;9.50;99.90
15947;DHT22;8072;52.554;7.966;2023-04-23T04:00:07;9.50;99.90
15947;DHT22;8072;52.554;7.966;2023-04-23T04:02:33;9.60;99.90
15947;DHT22;8072;52.554;7.966;2023-04-23T04:04:59;9.60;99.90
15947;DHT22;8072;52.554;7.966;2023-04-23T04:07:25;9.60;99.90
15947;DHT22;8072;52.554;7.966;2023-04-23T04:09:52;9.60;99.90
15947;DHT22;8072;52.554;7.966;2023-04-23T04:12:18;9.60;99.90
15947;DHT22;8072;52.554;7.966;2023-04-23T04:14:45;9.60;99.90
15947;DHT22;8072;52.554;7.966;2023-04-23T04:17:11;9.60;99.90
15947;DHT22;8072;52.554;7.966;2023-04-23T04:19:41;9.60;99.90
15947;DHT22;8072;52.554;7.966;2023-04-23T04:22:08;9.60;99.90
15947;DHT22;8072;52.554;7.966;2023-04-23T04:24:34;9.60;99.90
15947;DHT22;8072;52.554;7.966;2023-04-23T04:27:01;9.60;99.90
15947;DHT22;8072;52.554;7.966;2023-04-23T04:29:27;9.60;99.90
15947;DHT22;8072;52.554;7.966;2023-04-23T04:31:54;9.60;99.90
15947;DHT22;8072;52.554;7.966;2023-04-23T04:34:20;9.60;99.90
15947;DHT22;8072;52.554;7.966;2023-04-23T04:36:46;9.60;99.90
15947;DHT22;8072;52.554;7.966;2023-04-23T04:39:13;9.60;99.90
15947;DHT22;8072;52.554;7.966;2023-04-23T04:41:40;9.60;99.90
15947;DHT22;8072;52.554;7.966;2023-04-23T04:44:06;9.50;99.90
15947;DHT22;8072;52.554;7.966;2023-04-23T04:46:36;9.50;99.90
15947;DHT22;8072;52.554;7.966;2023-04-23T04:49:12;9.50;99.90
15947;DHT22;8072;52.554;7.966;2023-04-23T04:51:40;9.50;99.90
15947;DHT22;8072;52.554;7.966;2023-04-23T04:54:06;9.50;99.90
15947;DHT22;8072;52.554;7.966;2023-04-23T04:56:33;9.50;99.90
15947;DHT22;8072;52.554;7.966;2023-04-23T04:58:59;9.60;99.90
15947;DHT22;8072;52.554;7.966;2023-04-23T05:01:26;9.60;99.90
15947;DHT22;8072;52.554;7.966;2023-04-23T05:03:56;9.60;99.90
15947;DHT22;8072;52.554;7.966;2023-04-23T05:06:22;9.60;99.90
15947;DHT22;8072;52.554;7.966;2023-04-23T05:08:50;9.60;99.90
15947;DHT22;8072;52.554;7.966;2023-04-23T05:11:16;9.50;99.90
15947;DHT22;8072;52.554;7.966;2023-04-23T05:13:44;9.60;99.90
15947;DHT22;8072;52.554;7.966;2023-04-23T05:16:11;9.60;99.90
15947;DHT22;8072;52.554;7.966;2023-04-23T05:18:37;9.60;99.90
15947;DHT22;8072;52.554;7.966;2023-04-23T05:21:04;9.60;99.90
15947;DHT22;8072;52.554;7.966;2023-04-23T05:23:31;9.60;99.90
15947;DHT22;8072;52.554;7.966;2023-04-23T05:25:57;9.60;99.90
15947;DHT22;8072;52.554;7.966;2023-04-23T05:28:24;9.60;99.90
15947;DHT22;8072;52.554;7.966;2023-04-23T05:30:50;9.60;99.90
15947;DHT22;8072;52.554;7.966;2023-04-23T05:33:17;9.70;99.90
15947;DHT22;8072;52.554;7.966;2023-04-23T05:35:42;9.70;99.90
15947;DHT22;8072;52.554;7.966;2023-04-23T05:38:10;9.70;99.90
15947;DHT22;8072;52.554;7.966;2023-04-23T05:40:36;9.70;99.90
15947;DHT22;8072;52.554;7.966;2023-04-23T05:43:02;9.80;99.90
15947;DHT22;8072;52.554;7.966;2023-04-23T05:45:27;9.90;99.90
15947;DHT22;8072;52.554;7.966;2023-04-23T05:47:54;9.90;99.90
15947;DHT22;8072;52.554;7.966;2023-04-23T05:50:20;9.90;99.90
15947;DHT22;8072;52.554;7.966;2023-04-23T05:52:46;9.90;99.90
15947;DHT22;8072;52.554;7.966;2023-04-23T05:55:12;9.90;99.90
15947;DHT22;8072;52.554;7.966;2023-04-23T05:57:40;9.90;99.90
15947;DHT22;8072;52.554;7.966;2023-04-23T06:00:07;9.90;99.90
15947;DHT22;8072;52.554;7.966;2023-04-23T06:02:40;10.00;99.90
15947;DHT22;8072;52.554;7.966;2023-04-23T06:05:06;10.00;99.90
15947;DHT22;8072;52.554;7.966;2023-04-23T06:07:32;10.10;99.90
15947;DHT22;8072;52.554;7.966;2023-04-23T06:09:59;10.10;99.90
15947;DHT22;8072;52.554;7.966;2023-04-23T06:12:25;10.20;99.90
15947;DHT22;8072;52.554;7.966;2023-04-23T06:14:52;10.30;99.90
15947;DHT22;8072;52.554;7.966;2023-04-23T06:17:17;10.40;99.90
15947;DHT22;8072;52.554;7.966;2023-04-23T06:19:43;10.40;99.90
15947;DHT22;8072;52.554;7.966;2023-04-23T06:22:09;10.40;99.90
15947;DHT22;8072;52.554;7.966;2023-04-23T06:24:35;10.40;99.90
15947;DHT22;8072;52.554;7.966;2023-04-23T06:27:00;10.40;99.90
15947;DHT22;8072;52.554;7.966;2023-04-23T06:29:27;10.50;99.90
15947;DHT22;8072;52.554;7.966;2023-04-23T06:32:00;10.60;99.90
15947;DHT22;8072;52.554;7.966;2023-04-23T06:34:27;10.60;99.90
15947;DHT22;8072;52.554;7.966;2023-04-23T06:36:53;10.60;99.90
15947;DHT22;8072;52.554;7.966;2023-04-23T06:39:19;10.60;99.90
15947;DHT22;8072;52.554;7.966;2023-04-23T06:41:45;10.60;99.90
15947;DHT22;8072;52.554;7.966;2023-04-23T06:44:11;10.60;99.90
15947;DHT22;8072;52.554;7.966;2023-04-23T06:46:37;10.60;99.90
15947;DHT22;8072;52.554;7.966;2023-04-23T06:49:02;10.60;99.90
15947;DHT22;8072;52.554;7.966;2023-04-23T06:51:28;10.70;99.90
15947;DHT22;8072;52.554;7.966;2023-04-23T06:53:54;10.70;99.90
15947;DHT22;8072;52.554;7.966;2023-04-23T06:56:20;10.70;99.90
15947;DHT22;8072;52.554;7.966;2023-04-23T06:58:46;10.80;99.90
15947;DHT22;8072;52.554;7.966;2023-04-23T07:01:12;10.80;99.90
15947;DHT22;8072;52.554;7.966;2023-04-23T07:03:38;10.90;99.90
15947;DHT22;8072;52.554;7.966;2023-04-23T07:06:04;11.00;99.90
15947;DHT22;8072;52.554;7.966;2023-04-23T07:08:29;11.00;99.90
15947;DHT22;8072;52.554;7.966;2023-04-23T07:10:55;11.10;99.90
15947;DHT22;8072;52.554;7.966;2023-04-23T07:13:21;11.20;99.90
15947;DHT22;8072;52.554;7.966;2023-04-23T07:15:47;11.30;99.90
15947;DHT22;8072;52.554;7.966;2023-04-23T07:18:13;11.40;99.90
15947;DHT22;8072;52.554;7.966;2023-04-23T07:20:39;11.40;99.90
15947;DHT22;8072;52.554;7.966;2023-04-23T07:23:05;11.50;99.90
15947;DHT22;8072;52.554;7.966;2023-04-23T07:25:31;11.60;99.90
15947;DHT22;8072;52.554;7.966;2023-04-23T07:27:57;11.70;99.90
15947;DHT22;8072;52.554;7.966;2023-04-23T07:30:24;11.90;99.90
15947;DHT22;8072;52.554;7.966;2023-04-23T07:32:50;12.00;99.90
15947;DHT22;8072;52.554;7.966;2023-04-23T07:35:16;12.00;99.90
15947;DHT22;8072;52.554;7.966;2023-04-23T07:37:42;12.10;99.90
15947;DHT22;8072;52.554;7.966;2023-04-23T07:40:08;12.20;99.90
15947;DHT22;8072;52.554;7.966;2023-04-23T07:42:34;12.30;99.90
15947;DHT22;8072;52.554;7.966;2023-04-23T07:45:00;12.40;99.90
15947;DHT22;8072;52.554;7.966;2023-04-23T07:47:25;12.50;99.90
15947;DHT22;8072;52.554;7.966;2023-04-23T07:49:51;12.50;99.90
15947;DHT22;8072;52.554;7.966;2023-04-23T07:52:18;12.50;99.90
15947;DHT22;8072;52.554;7.966;2023-04-23T07:54:44;12.70;99.90
15947;DHT22;8072;52.554;7.966;2023-04-23T07:57:10;12.70;99.90
15947;DHT22;8072;52.554;7.966;2023-04-23T07:59:36;12.80;99.90
15947;DHT22;8072;52.554;7.966;2023-04-23T08:02:05;12.90;99.90
15947;DHT22;8072;52.554;7.966;2023-04-23T08:04:31;13.00;99.90
15947;DHT22;8072;52.554;7.966;2023-04-23T08:06:57;13.10;99.90
15947;DHT22;8072;52.554;7.966;2023-04-23T08:09:23;13.20;99.90
15947;DHT22;8072;52.554;7.966;2023-04-23T08:11:49;13.40;99.90
15947;DHT22;8072;52.554;7.966;2023-04-23T08:14:16;13.50;99.90
15947;DHT22;8072;52.554;7.966;2023-04-23T08:16:42;13.60;99.90
15947;DHT22;8072;52.554;7.966;2023-04-23T08:19:07;13.70;99.90
15947;DHT22;8072;52.554;7.966;2023-04-23T08:21:33;13.80;99.90
15947;DHT22;8072;52.554;7.966;2023-04-23T08:23:59;13.80;99.90
15947;DHT22;8072;52.554;7.966;2023-04-23T08:26:27;13.90;99.90
15947;DHT22;8072;52.554;7.966;2023-04-23T08:28:53;14.20;99.90
15947;DHT22;8072;52.554;7.966;2023-04-23T08:31:18;14.30;99.90
15947;DHT22;8072;52.554;7.966;2023-04-23T08:33:44;14.40;99.90
15947;DHT22;8072;52.554;7.966;2023-04-23T08:36:10;14.50;99.90
15947;DHT22;8072;52.554;7.966;2023-04-23T08:38:36;14.60;99.90
15947;DHT22;8072;52.554;7.966;2023-04-23T08:41:05;14.70;99.90
15947;DHT22;8072;52.554;7.966;2023-04-23T08:43:36;14.70;99.90
15947;DHT22;8072;52.554;7.966;2023-04-23T08:46:03;14.70;99.90
15947;DHT22;8072;52.554;7.966;2023-04-23T08:48:29;14.80;99.90
15947;DHT22;8072;52.554;7.966;2023-04-23T08:50:58;14.80;99.90
15947;DHT22;8072;52.554;7.966;2023-04-23T08:53:26;14.80;99.90
15947;DHT22;8072;52.554;7.966;2023-04-23T08:55:54;14.70;99.90
15947;DHT22;8072;52.554;7.966;2023-04-23T08:58:20;14.70;99.90
15947;DHT22;8072;52.554;7.966;2023-04-23T09:00:47;14.60;99.90
15947;DHT22;8072;52.554;7.966;2023-04-23T09:03:15;14.60;99.90
15947;DHT22;8072;52.554;7.966;2023-04-23T09:05:43;14.70;99.90
15947;DHT22;8072;52.554;7.966;2023-04-23T09:08:09;14.80;99.90
15947;DHT22;8072;52.554;7.966;2023-04-23T09:10:36;15.00;99.90
15947;DHT22;8072;52.554;7.966;2023-04-23T09:13:05;15.10;99.90
15947;DHT22;8072;52.554;7.966;2023-04-23T09:15:30;15.20;99.90
15947;DHT22;8072;52.554;7.966;2023-04-23T09:17:57;15.50;99.90
15947;DHT22;8072;52.554;7.966;2023-04-23T09:20:24;15.50;99.90
15947;DHT22;8072;52.554;7.966;2023-04-23T09:22:51;15.70;99.90
15947;DHT22;8072;52.554;7.966;2023-04-23T09:25:21;15.70;99.90
15947;DHT22;8072;52.554;7.966;2023-04-23T09:27:50;15.50;99.90
15947;DHT22;8072;52.554;7.966;2023-04-23T09:30:17;15.50;99.90
15947;DHT22;8072;52.554;7.966;2023-04-23T09:32:44;15.60;99.90
15947;DHT22;8072;52.554;7.966;2023-04-23T09:35:15;15.70;99.90
15947;DHT22;8072;52.554;7.966;2023-04-23T09:37:43;15.80;99.90
15947;DHT22;8072;52.554;7.966;2023-04-23T09:40:13;15.90;99.90
15947;DHT22;8072;52.554;7.966;2023-04-23T09:42:39;15.90;99.90
15947;DHT22;8072;52.554;7.966;2023-04-23T09:45:07;16.00;99.90
15947;DHT22;8072;52.554;7.966;2023-04-23T09:47:39;16.10;99.90
15947;DHT22;8072;52.554;7.966;2023-04-23T09:50:05;16.30;99.90
15947;DHT22;8072;52.554;7.966;2023-04-23T09:52:32;16.30;99.90
15947;DHT22;8072;52.554;7.966;2023-04-23T09:55:01;16.30;99.90
15947;DHT22;8072;52.554;7.966;2023-04-23T09:57:26;16.30;99.90
15947;DHT22;8072;52.554;7.966;2023-04-23T09:59:55;16.30;99.90
15947;DHT22;8072;52.554;7.966;2023-04-23T10:02:26;16.30;99.90
15947;DHT22;8072;52.554;7.966;2023-04-23T10:04:53;16.30;99.90
15947;DHT22;8072;52.554;7.966;2023-04-23T10:07:19;16.40;99.90
15947;DHT22;8072;52.554;7.966;2023-04-23T10:09:46;16.50;99.90
15947;DHT22;8072;52.554;7.966;2023-04-23T10:12:13;16.70;99.90
15947;DHT22;8072;52.554;7.966;2023-04-23T10:14:40;16.70;99.90
15947;DHT22;8072;52.554;7.966;2023-04-23T10:17:08;16.70;99.90
15947;DHT22;8072;52.554;7.966;2023-04-23T10:19:36;16.70;99.90
15947;DHT22;8072;52.554;7.966;2023-04-23T10:22:08;16.90;99.90
15947;DHT22;8072;52.554;7.966;2023-04-23T10:24:38;17.10;99.90
15947;DHT22;8072;52.554;7.966;2023-04-23T10:27:10;17.00;99.90
15947;DHT22;8072;52.554;7.966;2023-04-23T10:29:37;17.20;99.90
15947;DHT22;8072;52.554;7.966;2023-04-23T10:32:05;17.10;99.90
15947;DHT22;8072;52.554;7.966;2023-04-23T10:34:32;17.00;99.90
15947;DHT22;8072;52.554;7.966;2023-04-23T10:37:00;16.90;99.90
15947;DHT22;8072;52.554;7.966;2023-04-23T10:39:32;17.00;99.90
15947;DHT22;8072;52.554;7.966;2023-04-23T10:42:00;17.20;99.90
15947;DHT22;8072;52.554;7.966;2023-04-23T10:44:36;17.40;99.90
15947;DHT22;8072;52.554;7.966;2023-04-23T10:47:03;17.60;99.90
15947;DHT22;8072;52.554;7.966;2023-04-23T10:49:31;17.70;99.90
15947;DHT22;8072;52.554;7.966;2023-04-23T10:54:29;18.00;99.90
15947;DHT22;8072;52.554;7.966;2023-04-23T10:57:00;17.80;99.90
15947;DHT22;8072;52.554;7.966;2023-04-23T10:59:35;17.60;99.90
15947;DHT22;8072;52.554;7.966;2023-04-23T11:02:12;17.50;99.90
15947;DHT22;8072;52.554;7.966;2023-04-23T11:04:44;17.50;99.90
15947;DHT22;8072;52.554;7.966;2023-04-23T11:07:11;17.70;99.90
15947;DHT22;8072;52.554;7.966;2023-04-23T11:09:40;17.90;99.90
15947;DHT22;8072;52.554;7.966;2023-04-23T11:14:58;17.80;99.90
15947;DHT22;8072;52.554;7.966;2023-04-23T11:20:12;18.20;99.90
15947;DHT22;8072;52.554;7.966;2023-04-23T11:22:47;18.20;99.90
15947;DHT22;8072;52.554;7.966;2023-04-23T11:25:15;18.20;99.90
15947;DHT22;8072;52.554;7.966;2023-04-23T11:27:44;18.00;99.90
15947;DHT22;8072;52.554;7.966;2023-04-23T11:30:15;18.00;99.90
15947;DHT22;8072;52.554;7.966;2023-04-23T11:32:52;18.20;99.90
15947;DHT22;8072;52.554;7.966;2023-04-23T11:35:20;18.60;99.90
15947;DHT22;8072;52.554;7.966;2023-04-23T11:37:47;18.80;99.90
15947;DHT22;8072;52.554;7.966;2023-04-23T11:40:16;18.60;99.90
15947;DHT22;8072;52.554;7.966;2023-04-23T11:42:45;18.40;99.90
15947;DHT22;8072;52.554;7.966;2023-04-23T11:45:16;18.20;99.90
15947;DHT22;8072;52.554;7.966;2023-04-23T11:47:43;18.00;99.90
15947;DHT22;8072;52.554;7.966;2023-04-23T11:50:19;18.10;99.90
15947;DHT22;8072;52.554;7.966;2023-04-23T11:52:47;18.20;99.90
15947;DHT22;8072;52.554;7.966;2023-04-23T11:55:13;18.20;99.90
15947;DHT22;8072;52.554;7.966;2023-04-23T11:57:50;18.40;99.90
15947;DHT22;8072;52.554;7.966;2023-04-23T12:00:21;18.40;99.90
15947;DHT22;8072;52.554;7.966;2023-04-23T12:05:22;18.50;99.90
15947;DHT22;8072;52.554;7.966;2023-04-23T12:07:52;18.50;99.90
15947;DHT22;8072;52.554;7.966;2023-04-23T12:10:20;18.40;99.90
15947;DHT22;8072;52.554;7.966;2023-04-23T12:12:52;18.40;99.90
15947;DHT22;8072;52.554;7.966;2023-04-23T12:15:18;18.30;99.90
15947;DHT22;8072;52.554;7.966;2023-04-23T12:18:07;18.40;99.90
15947;DHT22;8072;52.554;7.966;2023-04-23T12:20:33;18.40;99.90
15947;DHT22;8072;52.554;7.966;2023-04-23T12:23:04;18.40;99.90
15947;DHT22;8072;52.554;7.966;2023-04-23T12:25:31;18.40;99.90
15947;DHT22;8072;52.554;7.966;2023-04-23T12:28:02;18.50;99.90
15947;DHT22;8072;52.554;7.966;2023-04-23T12:30:33;18.80;99.90
15947;DHT22;8072;52.554;7.966;2023-04-23T12:33:02;19.00;99.90
15947;DHT22;8072;52.554;7.966;2023-04-23T12:35:43;19.10;99.90
15947;DHT22;8072;52.554;7.966;2023-04-23T12:38:29;19.30;99.90
15947;DHT22;8072;52.554;7.966;2023-04-23T12:40:57;19.50;99.90
15947;DHT22;8072;52.554;7.966;2023-04-23T12:43:24;19.40;99.90
15947;DHT22;8072;52.554;7.966;2023-04-23T12:45:51;19.30;99.90
15947;DHT22;8072;52.554;7.966;2023-04-23T12:48:17;19.20;99.90
15947;DHT22;8072;52.554;7.966;2023-04-23T12:50:46;19.00;99.90
15947;DHT22;8072;52.554;7.966;2023-04-23T12:53:12;18.90;99.90
15947;DHT22;8072;52.554;7.966;2023-04-23T12:55:38;18.90;99.90
15947;DHT22;8072;52.554;7.966;2023-04-23T12:58:04;19.00;99.90
15947;DHT22;8072;52.554;7.966;2023-04-23T13:00:30;19.00;99.90
15947;DHT22;8072;52.554;7.966;2023-04-23T13:02:56;18.90;99.90
15947;DHT22;8072;52.554;7.966;2023-04-23T13:05:22;18.80;99.90
15947;DHT22;8072;52.554;7.966;2023-04-23T13:07:48;18.70;99.90
15947;DHT22;8072;52.554;7.966;2023-04-23T13:10:14;18.60;99.90
15947;DHT22;8072;52.554;7.966;2023-04-23T13:12:40;18.60;99.90
15947;DHT22;8072;52.554;7.966;2023-04-23T13:15:07;18.50;99.90
15947;DHT22;8072;52.554;7.966;2023-04-23T13:17:35;18.50;99.90
15947;DHT22;8072;52.554;7.966;2023-04-23T13:20:00;18.60;99.90
15947;DHT22;8072;52.554;7.966;2023-04-23T13:22:27;18.60;99.90
15947;DHT22;8072;52.554;7.966;2023-04-23T13:24:54;18.70;99.90
15947;DHT22;8072;52.554;7.966;2023-04-23T13:27:25;18.60;99.90
15947;DHT22;8072;52.554;7.966;2023-04-23T13:29:51;18.60;99.90
15947;DHT22;8072;52.554;7.966;2023-04-23T13:32:17;18.60;99.90
15947;DHT22;8072;52.554;7.966;2023-04-23T13:34:43;18.60;99.90
15947;DHT22;8072;52.554;7.966;2023-04-23T13:37:09;18.60;99.90
15947;DHT22;8072;52.554;7.966;2023-04-23T13:39:36;18.50;99.90
15947;DHT22;8072;52.554;7.966;2023-04-23T13:42:02;18.50;99.90
15947;DHT22;8072;52.554;7.966;2023-04-23T13:44:29;18.50;99.90
15947;DHT22;8072;52.554;7.966;2023-04-23T13:46:56;18.50;99.90
15947;DHT22;8072;52.554;7.966;2023-04-23T13:49:26;18.50;99.90
15947;DHT22;8072;52.554;7.966;2023-04-23T13:51:55;18.60;99.90
15947;DHT22;8072;52.554;7.966;2023-04-23T13:54:25;18.80;99.90
15947;DHT22;8072;52.554;7.966;2023-04-23T13:56:54;18.90;99.90
15947;DHT22;8072;52.554;7.966;2023-04-23T13:59:20;18.90;99.90
15947;DHT22;8072;52.554;7.966;2023-04-23T14:01:47;18.80;99.90
15947;DHT22;8072;52.554;7.966;2023-04-23T14:04:16;18.70;99.90
15947;DHT22;8072;52.554;7.966;2023-04-23T14:06:42;18.70;99.90
15947;DHT22;8072;52.554;7.966;2023-04-23T14:09:08;18.60;99.90
15947;DHT22;8072;52.554;7.966;2023-04-23T14:11:33;18.60;99.90
15947;DHT22;8072;52.554;7.966;2023-04-23T14:13:59;18.60;99.90
15947;DHT22;8072;52.554;7.966;2023-04-23T14:16:25;18.50;99.90
15947;DHT22;8072;52.554;7.966;2023-04-23T14:18:51;18.60;99.90
15947;DHT22;8072;52.554;7.966;2023-04-23T14:21:17;18.50;99.90
15947;DHT22;8072;52.554;7.966;2023-04-23T14:23:44;18.60;99.90
15947;DHT22;8072;52.554;7.966;2023-04-23T14:26:43;18.60;99.90
15947;DHT22;8072;52.554;7.966;2023-04-23T14:29:55;18.60;99.90
15947;DHT22;8072;52.554;7.966;2023-04-23T14:32:21;18.60;99.90
15947;DHT22;8072;52.554;7.966;2023-04-23T14:34:47;18.60;99.90
15947;DHT22;8072;52.554;7.966;2023-04-23T14:37:13;18.70;99.90
15947;DHT22;8072;52.554;7.966;2023-04-23T14:39:41;18.80;99.90
15947;DHT22;8072;52.554;7.966;2023-04-23T14:42:07;18.70;99.90
15947;DHT22;8072;52.554;7.966;2023-04-23T14:44:33;18.70;99.90
15947;DHT22;8072;52.554;7.966;2023-04-23T14:46:58;18.60;99.90
15947;DHT22;8072;52.554;7.966;2023-04-23T14:49:24;18.50;99.90
15947;DHT22;8072;52.554;7.966;2023-04-23T14:51:52;18.50;99.90
15947;DHT22;8072;52.554;7.966;2023-04-23T14:54:22;18.40;99.90
15947;DHT22;8072;52.554;7.966;2023-04-23T14:56:49;18.30;99.90
15947;DHT22;8072;52.554;7.966;2023-04-23T14:59:15;18.30;99.90
15947;DHT22;8072;52.554;7.966;2023-04-23T15:01:43;18.20;99.90
15947;DHT22;8072;52.554;7.966;2023-04-23T15:04:10;18.10;99.90
15947;DHT22;8072;52.554;7.966;2023-04-23T15:06:36;17.90;99.90
15947;DHT22;8072;52.554;7.966;2023-04-23T15:09:03;17.70;99.90
15947;DHT22;8072;52.554;7.966;2023-04-23T15:11:30;17.50;99.90
15947;DHT22;8072;52.554;7.966;2023-04-23T15:14:29;17.50;99.90
15947;DHT22;8072;52.554;7.966;2023-04-23T15:16:55;17.50;99.90
15947;DHT22;8072;52.554;7.966;2023-04-23T15:19:21;17.40;99.90
15947;DHT22;8072;52.554;7.966;2023-04-23T15:21:48;17.30;99.90
15947;DHT22;8072;52.554;7.966;2023-04-23T15:24:15;17.10;99.90
15947;DHT22;8072;52.554;7.966;2023-04-23T15:26:41;17.10;99.90
15947;DHT22;8072;52.554;7.966;2023-04-23T15:29:07;17.10;99.90
15947;DHT22;8072;52.554;7.966;2023-04-23T15:31:35;17.10;99.90
15947;DHT22;8072;52.554;7.966;2023-04-23T15:34:00;17.10;99.90
15947;DHT22;8072;52.554;7.966;2023-04-23T15:36:26;17.20;99.90
15947;DHT22;8072;52.554;7.966;2023-04-23T15:38:52;17.20;99.90
15947;DHT22;8072;52.554;7.966;2023-04-23T15:41:18;17.30;99.90
15947;DHT22;8072;52.554;7.966;2023-04-23T15:43:43;17.30;99.90
15947;DHT22;8072;52.554;7.966;2023-04-23T15:46:09;17.30;99.90
15947;DHT22;8072;52.554;7.966;2023-04-23T15:48:35;17.40;99.90
15947;DHT22;8072;52.554;7.966;2023-04-23T15:51:01;17.40;99.90
15947;DHT22;8072;52.554;7.966;2023-04-23T15:53:27;17.50;99.90
15947;DHT22;8072;52.554;7.966;2023-04-23T15:55:53;17.60;99.90
15947;DHT22;8072;52.554;7.966;2023-04-23T15:58:19;17.70;99.90
15947;DHT22;8072;52.554;7.966;2023-04-23T16:00:45;17.60;99.90